首页
METAR-TAF:

METAR-TAF

机场 :

Fort Nelson, 不列颠哥伦比亚, 加拿大

纬度: 58-50N, 经度: 122-35W, 海拔: 382米

当前天气观测

该预报发布于1小时和7分钟前的11:00 UTC
静风
温度 15°C
湿度 72%
气压 1008 hPa
能見度: 48.3公里
多云层高于15000英尺

METAR: CYYE 211100Z 00000KT 30SM BKN150 15/10 A2978 RMK AC6 SLP086 DENSITY ALT 1800FT

时间: 05:07 (12:07 UTC)

预报

该预报发布于5小时和29分钟前的06:38 UTC
预报有效从21日的 07点(UTC)到 21日的 19点(UTC)
风速3节,风向多变
能見度: 10公里
少量云层高于12000英尺
多云层高于20000英尺
成为
从 21日的 16点(UTC)到 21日的 18点(UTC)
风速10节,风向西

TAF: CYYE 210638Z 2107/2119 VRB03KT P6SM FEW120 BKN200 BECMG 2116/2118 28010KT RMK NXT FCST BY 211300Z

超过4000个机场的气象观测和天气预报(METAR&TAF报告)。

可查询的气象台以黄色和红色小点在地图上表示。

将鼠标移到小点上方,可查看气象台名称。

然后点击查看天气观测和预报。

如需切换地图:点击带黑十字的绿色按钮放大地图;点击带横线的绿色按钮缩小地图;或者点击绿色箭头查看邻近地区的地图。


METAR-TAF: